createdAt,value
2023-02-12T00:01:28.722Z,15.77
2023-02-12T00:03:56.912Z,15.77
2023-02-12T00:06:25.487Z,17.43
2023-02-12T00:08:54.514Z,17.93
2023-02-12T00:11:24.683Z,20.87
2023-02-12T00:13:52.949Z,20.27
2023-02-12T00:16:24.086Z,20.80
2023-02-12T00:18:54.852Z,19.73
2023-02-12T00:21:23.154Z,21.37
2023-02-12T00:23:51.283Z,16.93
2023-02-12T00:26:22.952Z,19.97
2023-02-12T00:28:54.322Z,18.47
2023-02-12T00:31:24.119Z,18.37
2023-02-12T00:33:53.807Z,19.63
2023-02-12T00:36:23.953Z,20.37
2023-02-12T00:38:53.027Z,19.63
2023-02-12T00:41:21.247Z,19.03
2023-02-12T00:43:49.690Z,21.10
2023-02-12T00:46:17.637Z,20.37
2023-02-12T00:48:45.748Z,21.37
2023-02-12T00:51:15.092Z,20.83
2023-02-12T00:53:45.050Z,20.37
2023-02-12T00:56:12.834Z,21.70
2023-02-12T00:58:41.351Z,17.37
2023-02-12T01:01:09.251Z,20.67
2023-02-12T01:03:37.319Z,21.07
2023-02-12T01:06:05.834Z,16.00
2023-02-12T01:08:34.934Z,19.57
2023-02-12T01:11:05.198Z,20.60
2023-02-12T01:13:34.245Z,20.13
2023-02-12T01:16:04.443Z,17.27
2023-02-12T01:18:32.260Z,14.37
2023-02-12T01:21:01.317Z,18.87
2023-02-12T01:23:29.547Z,15.13
2023-02-12T01:25:59.582Z,16.77
2023-02-12T01:28:27.616Z,20.03
2023-02-12T01:30:55.495Z,20.13
2023-02-12T01:33:23.226Z,20.77
2023-02-12T01:35:50.937Z,16.70
2023-02-12T01:38:18.990Z,22.30
2023-02-12T01:40:46.695Z,19.57
2023-02-12T01:43:15.849Z,16.53
2023-02-12T01:45:50.406Z,15.93
2023-02-12T01:48:20.237Z,20.93
2023-02-12T01:50:50.038Z,20.70
2023-02-12T01:53:20.886Z,18.17
2023-02-12T01:55:52.083Z,15.20
2023-02-12T01:58:25.052Z,17.47
2023-02-12T02:00:53.523Z,15.77
2023-02-12T02:03:21.699Z,18.67
2023-02-12T02:05:56.842Z,20.17
2023-02-12T02:08:25.888Z,16.27
2023-02-12T02:10:53.895Z,20.33
2023-02-12T02:13:40.717Z,19.30
2023-02-12T02:16:16.885Z,21.37
2023-02-12T02:18:54.516Z,21.47
2023-02-12T02:21:46.937Z,18.87
2023-02-12T02:24:49.380Z,17.03
2023-02-12T02:27:21.586Z,22.67
2023-02-12T02:30:27.500Z,21.27
2023-02-12T02:33:07.974Z,21.07
2023-02-12T02:35:42.777Z,17.33
2023-02-12T02:38:23.322Z,20.77
2023-02-12T02:40:56.989Z,18.13
2023-02-12T02:43:29.724Z,19.23
2023-02-12T02:46:02.389Z,16.50
2023-02-12T02:48:37.347Z,20.13
2023-02-12T02:51:10.085Z,18.00
2023-02-12T02:53:43.295Z,17.27
2023-02-12T02:56:15.890Z,19.67
2023-02-12T02:58:51.236Z,16.63
2023-02-12T03:01:22.970Z,18.37
2023-02-12T03:03:55.876Z,19.07
2023-02-12T03:06:28.641Z,20.17
2023-02-12T03:09:01.249Z,18.57
2023-02-12T03:11:33.084Z,20.13
2023-02-12T03:14:06.754Z,21.43
2023-02-12T03:16:40.036Z,19.90
2023-02-12T03:19:13.101Z,21.47
2023-02-12T03:21:44.782Z,19.63
2023-02-12T03:24:17.586Z,20.67
2023-02-12T03:26:49.606Z,18.50
2023-02-12T03:29:17.513Z,19.60
2023-02-12T03:31:55.026Z,17.93
2023-02-12T03:34:32.134Z,19.60
2023-02-12T03:37:04.030Z,17.60
2023-02-12T03:39:39.566Z,19.83
2023-02-12T03:42:11.323Z,18.57
2023-02-12T03:44:49.423Z,19.03
2023-02-12T03:47:23.965Z,21.57
2023-02-12T03:50:02.105Z,22.47
2023-02-12T03:52:31.117Z,20.17
2023-02-12T03:54:59.280Z,22.63
2023-02-12T03:57:31.404Z,20.97
2023-02-12T03:59:59.825Z,21.67
2023-02-12T04:02:27.822Z,22.60
2023-02-12T04:04:57.036Z,23.23
2023-02-12T04:07:25.070Z,23.40
2023-02-12T04:09:52.809Z,23.30
2023-02-12T04:12:35.796Z,23.10
2023-02-12T04:15:23.455Z,20.77
2023-02-12T04:18:02.863Z,23.07
2023-02-12T04:20:47.689Z,23.63
2023-02-12T04:23:23.768Z,23.43
2023-02-12T04:26:00.185Z,21.40
2023-02-12T04:28:38.406Z,20.57
2023-02-12T04:31:12.788Z,19.67
2023-02-12T04:33:45.793Z,20.50
2023-02-12T04:36:18.184Z,22.53
2023-02-12T04:38:52.283Z,21.37
2023-02-12T04:41:23.064Z,20.77
2023-02-12T04:43:51.099Z,22.30
2023-02-12T04:46:19.014Z,22.47
2023-02-12T04:48:54.594Z,23.20
2023-02-12T04:51:23.738Z,22.93
2023-02-12T04:53:51.955Z,21.40
2023-02-12T04:56:19.702Z,21.27
2023-02-12T04:58:47.522Z,21.00
2023-02-12T05:01:16.020Z,20.47
2023-02-12T05:03:43.775Z,20.87
2023-02-12T05:06:11.588Z,20.80
2023-02-12T05:08:40.970Z,21.37
2023-02-12T05:11:10.397Z,21.87
2023-02-12T05:13:38.801Z,19.40
2023-02-12T05:16:07.865Z,20.67
2023-02-12T05:18:36.693Z,21.20
2023-02-12T05:21:06.830Z,17.10
2023-02-12T05:23:36.653Z,19.83
2023-02-12T05:26:07.516Z,20.20
2023-02-12T05:28:35.488Z,19.97
2023-02-12T05:31:06.044Z,21.40
2023-02-12T05:33:34.204Z,18.53
2023-02-12T05:36:05.034Z,20.63
2023-02-12T05:38:33.144Z,20.90
2023-02-12T05:41:06.437Z,19.63
2023-02-12T05:43:34.772Z,18.00
2023-02-12T05:46:04.130Z,19.93
2023-02-12T05:48:33.455Z,19.97
2023-02-12T05:51:05.314Z,19.43
2023-02-12T05:53:33.099Z,20.57
2023-02-12T05:56:13.530Z,19.60
2023-02-12T05:58:43.611Z,21.07
2023-02-12T06:01:15.172Z,19.00
2023-02-12T06:03:43.311Z,20.83
2023-02-12T06:06:11.860Z,19.83
2023-02-12T06:08:40.064Z,21.00
2023-02-12T06:11:10.425Z,19.17
2023-02-12T06:13:39.641Z,21.40
2023-02-12T06:16:08.103Z,21.10
2023-02-12T06:18:37.873Z,19.90
2023-02-12T06:21:06.117Z,19.73
2023-02-12T06:23:33.850Z,21.20
2023-02-12T06:26:01.622Z,19.57
2023-02-12T06:28:29.449Z,20.40
2023-02-12T06:30:58.641Z,21.47
2023-02-12T06:33:26.610Z,22.03
2023-02-12T06:35:54.610Z,19.73
2023-02-12T06:38:22.970Z,21.87
2023-02-12T06:40:50.819Z,17.67
2023-02-12T06:43:18.870Z,20.10
2023-02-12T06:45:46.553Z,19.67
2023-02-12T06:48:15.665Z,20.13
2023-02-12T06:50:43.373Z,22.07
2023-02-12T06:53:11.117Z,16.53
2023-02-12T06:55:41.427Z,21.70
2023-02-12T06:58:09.221Z,20.87
2023-02-12T07:00:37.038Z,23.20
2023-02-12T07:03:07.824Z,23.13
2023-02-12T07:05:39.925Z,20.87
2023-02-12T07:08:07.662Z,21.83
2023-02-12T07:10:35.437Z,24.47
2023-02-12T07:13:03.837Z,22.70
2023-02-12T07:15:31.640Z,20.97
2023-02-12T07:17:59.406Z,21.17
2023-02-12T07:20:27.150Z,20.10
2023-02-12T07:22:56.308Z,21.47
2023-02-12T07:25:24.044Z,21.70
2023-02-12T07:27:51.797Z,22.30
2023-02-12T07:30:20.070Z,23.70
2023-02-12T07:32:47.818Z,23.60
2023-02-12T07:35:15.857Z,20.80
2023-02-12T07:37:43.560Z,21.57
2023-02-12T07:40:13.223Z,20.17
2023-02-12T07:42:40.977Z,22.83
2023-02-12T07:45:11.411Z,21.67
2023-02-12T07:47:40.622Z,22.47
2023-02-12T07:50:09.041Z,23.63
2023-02-12T07:52:36.788Z,20.63
2023-02-12T07:55:04.602Z,21.60
2023-02-12T07:57:33.730Z,21.90
2023-02-12T08:00:01.457Z,23.03
2023-02-12T08:02:29.249Z,22.50
2023-02-12T08:04:57.777Z,22.00
2023-02-12T08:07:25.764Z,20.33
2023-02-12T08:09:53.952Z,18.47
2023-02-12T08:12:21.701Z,18.20
2023-02-12T08:14:50.789Z,17.17
2023-02-12T08:17:18.509Z,18.97
2023-02-12T08:19:46.306Z,16.67
2023-02-12T08:22:14.349Z,24.23
2023-02-12T08:24:43.319Z,20.17
2023-02-12T08:27:11.194Z,24.83
2023-02-12T08:29:41.040Z,20.03
2023-02-12T08:32:14.229Z,22.97
2023-02-12T08:34:42.587Z,23.10
2023-02-12T08:37:10.377Z,22.53
2023-02-12T08:39:38.212Z,22.63
2023-02-12T08:42:06.081Z,24.30
2023-02-12T08:44:33.985Z,21.87
2023-02-12T08:47:01.695Z,22.70
2023-02-12T08:49:31.452Z,24.27
2023-02-12T08:52:01.834Z,23.03
2023-02-12T08:54:31.521Z,24.87
2023-02-12T08:57:01.303Z,22.17
2023-02-12T08:59:29.446Z,22.17
2023-02-12T09:01:57.357Z,21.23
2023-02-12T09:04:26.835Z,19.70
2023-02-12T09:06:56.920Z,25.07
2023-02-12T09:09:27.003Z,24.23
2023-02-12T09:11:54.819Z,24.33
2023-02-12T09:14:25.270Z,23.93
2023-02-12T09:16:53.854Z,25.10
2023-02-12T09:19:22.110Z,26.60
2023-02-12T09:21:55.257Z,27.07
2023-02-12T09:24:26.045Z,26.50
2023-02-12T09:26:53.999Z,27.13
2023-02-12T09:29:21.716Z,23.63
2023-02-12T09:31:49.568Z,23.03
2023-02-12T09:34:17.528Z,23.13
2023-02-12T09:36:45.332Z,24.17
2023-02-12T09:39:13.048Z,25.10
2023-02-12T09:42:15.292Z,25.50
2023-02-12T09:44:50.089Z,23.37
2023-02-12T09:47:27.875Z,20.53
2023-02-12T09:50:12.255Z,25.97
2023-02-12T09:52:41.168Z,26.83
2023-02-12T09:55:15.620Z,29.13
2023-02-12T09:57:45.790Z,25.77
2023-02-12T10:00:17.492Z,26.70
2023-02-12T10:02:49.664Z,26.70
2023-02-12T10:05:24.102Z,26.53
2023-02-12T10:08:14.543Z,25.17
2023-02-12T10:10:52.730Z,27.80
2023-02-12T10:13:38.430Z,27.47
2023-02-12T10:16:13.573Z,25.17
2023-02-12T10:19:00.971Z,22.43
2023-02-12T10:21:43.444Z,22.07
2023-02-12T10:24:30.339Z,23.50
2023-02-12T10:27:01.828Z,22.10
2023-02-12T10:29:35.539Z,25.60
2023-02-12T10:32:08.855Z,22.87
2023-02-12T10:34:38.170Z,22.33
2023-02-12T10:37:15.597Z,23.70
2023-02-12T10:39:49.218Z,24.63
2023-02-12T10:42:20.751Z,22.40
2023-02-12T10:44:49.949Z,22.53
2023-02-12T10:47:21.651Z,22.63
2023-02-12T10:49:53.775Z,23.07
2023-02-12T10:52:34.131Z,24.10
2023-02-12T10:55:01.925Z,24.33
2023-02-12T10:57:31.993Z,25.70
2023-02-12T11:00:25.406Z,24.00
2023-02-12T11:03:04.762Z,23.70
2023-02-12T11:05:35.649Z,23.23
2023-02-12T11:08:03.969Z,23.70
2023-02-12T11:10:34.038Z,19.50
2023-02-12T11:13:02.931Z,18.57
2023-02-12T11:15:38.755Z,15.67
2023-02-12T11:18:08.607Z,8.67
2023-02-12T11:20:41.269Z,5.03
2023-02-12T11:23:26.031Z,4.93
2023-02-12T11:25:59.910Z,4.03
2023-02-12T11:28:28.742Z,4.43
2023-02-12T11:31:00.390Z,5.23
2023-02-12T11:33:30.882Z,5.07
2023-02-12T11:36:01.461Z,5.50
2023-02-12T11:38:32.854Z,5.60
2023-02-12T11:41:06.174Z,5.03
2023-02-12T11:43:37.330Z,4.70
2023-02-12T11:46:09.194Z,5.23
2023-02-12T11:48:40.674Z,4.67
2023-02-12T11:51:10.973Z,4.60
2023-02-12T11:53:43.924Z,4.80
2023-02-12T11:56:14.651Z,5.20
2023-02-12T11:58:42.602Z,5.97
2023-02-12T12:01:19.404Z,5.60
2023-02-12T12:03:55.131Z,5.20
2023-02-12T12:06:29.180Z,5.53
2023-02-12T12:09:03.087Z,6.33
2023-02-12T12:11:38.303Z,5.30
2023-02-12T12:14:15.304Z,6.47
2023-02-12T12:17:10.131Z,5.60
2023-02-12T12:19:55.679Z,6.30
2023-02-12T12:22:41.580Z,5.57
2023-02-12T12:25:21.539Z,5.80
2023-02-12T12:28:08.262Z,6.30
2023-02-12T12:30:49.647Z,6.73
2023-02-12T12:33:27.395Z,6.13
2023-02-12T12:36:09.748Z,4.87
2023-02-12T12:38:48.206Z,5.60
2023-02-12T12:41:28.432Z,5.27
2023-02-12T12:44:11.907Z,5.03
2023-02-12T12:46:57.672Z,5.37
2023-02-12T12:49:53.701Z,5.00
2023-02-12T12:52:41.112Z,3.90
2023-02-12T12:55:31.695Z,4.60
2023-02-12T12:58:10.444Z,4.33
2023-02-12T13:01:06.119Z,4.77
2023-02-12T13:03:53.605Z,4.43
2023-02-12T13:06:39.139Z,4.93
2023-02-12T13:09:24.980Z,4.53
2023-02-12T13:12:07.814Z,4.93
2023-02-12T13:14:45.218Z,4.63
2023-02-12T13:17:24.589Z,4.07
2023-02-12T13:20:00.491Z,5.33
2023-02-12T13:22:36.414Z,4.87
2023-02-12T13:25:17.400Z,4.60
2023-02-12T13:27:47.465Z,4.33
2023-02-12T13:30:24.237Z,4.30
2023-02-12T13:33:04.119Z,4.10
2023-02-12T13:35:35.016Z,3.67
2023-02-12T13:38:08.623Z,3.63
2023-02-12T13:40:37.228Z,3.90
2023-02-12T13:43:20.059Z,3.87
2023-02-12T13:45:53.881Z,4.20
2023-02-12T13:48:34.975Z,4.57
2023-02-12T13:51:09.963Z,4.40
2023-02-12T13:53:52.534Z,4.73
2023-02-12T13:56:34.016Z,4.73
2023-02-12T13:59:01.846Z,4.73
2023-02-12T14:01:45.069Z,4.10
2023-02-12T14:04:33.900Z,4.33
2023-02-12T14:07:05.014Z,4.13
2023-02-12T14:09:38.670Z,4.47
2023-02-12T14:12:08.320Z,4.23
2023-02-12T14:14:39.865Z,3.97
2023-02-12T14:17:43.593Z,4.00
2023-02-12T14:20:27.707Z,4.03
2023-02-12T14:23:26.747Z,3.53
2023-02-12T14:26:02.514Z,3.37
2023-02-12T14:28:42.792Z,3.00
2023-02-12T14:31:38.444Z,3.13
2023-02-12T14:34:50.974Z,2.47
2023-02-12T14:37:35.958Z,2.43
2023-02-12T14:40:42.829Z,2.37
2023-02-12T14:43:59.600Z,2.20
2023-02-12T14:46:48.609Z,2.30
2023-02-12T14:49:24.868Z,2.03
2023-02-12T14:51:58.471Z,1.80
2023-02-12T14:54:31.508Z,2.10
2023-02-12T14:57:02.748Z,2.00
2023-02-12T14:59:38.487Z,2.00
2023-02-12T15:02:09.928Z,2.40
2023-02-12T15:04:39.421Z,1.90
2023-02-12T15:07:12.131Z,1.97
2023-02-12T15:09:46.016Z,1.80
2023-02-12T15:12:21.749Z,2.30
2023-02-12T15:15:00.149Z,2.20
2023-02-12T15:17:36.018Z,1.80
2023-02-12T15:20:08.939Z,2.00
2023-02-12T15:22:38.343Z,1.63
2023-02-12T15:25:16.576Z,1.87
2023-02-12T15:27:45.073Z,1.67
2023-02-12T15:30:26.612Z,2.10
2023-02-12T15:33:01.012Z,2.07
2023-02-12T15:35:32.321Z,1.87
2023-02-12T15:38:02.220Z,2.10
2023-02-12T15:40:30.948Z,2.20
2023-02-12T15:43:00.501Z,1.97
2023-02-12T15:45:31.028Z,2.23
2023-02-12T15:48:08.158Z,2.07
2023-02-12T15:50:38.809Z,2.07
2023-02-12T15:53:07.515Z,2.80
2023-02-12T15:55:40.968Z,2.23
2023-02-12T15:58:28.982Z,2.30
2023-02-12T16:01:08.359Z,1.60
2023-02-12T16:03:38.406Z,2.53
2023-02-12T16:06:12.016Z,2.43
2023-02-12T16:08:42.356Z,2.20
2023-02-12T16:11:15.010Z,2.20
2023-02-12T16:13:46.852Z,2.10
2023-02-12T16:16:30.520Z,1.80
2023-02-12T16:19:08.535Z,2.03
2023-02-12T16:21:40.084Z,2.43
2023-02-12T16:24:26.760Z,2.20
2023-02-12T16:26:55.551Z,2.03
2023-02-12T16:29:23.661Z,2.30
2023-02-12T16:31:58.959Z,2.63
2023-02-12T16:34:33.061Z,2.37
2023-02-12T16:37:01.223Z,2.80
2023-02-12T16:40:02.956Z,2.27
2023-02-12T16:42:33.181Z,2.80
2023-02-12T16:45:01.025Z,2.33
2023-02-12T16:47:30.248Z,2.60
2023-02-12T16:50:00.938Z,2.20
2023-02-12T16:52:35.588Z,2.70
2023-02-12T16:55:03.570Z,3.10
2023-02-12T16:57:31.377Z,3.00
2023-02-12T16:59:59.121Z,2.80
2023-02-12T17:02:26.998Z,2.67
2023-02-12T17:05:00.844Z,3.13
2023-02-12T17:07:30.952Z,3.20
2023-02-12T17:09:58.863Z,2.77
2023-02-12T17:12:27.480Z,3.47
2023-02-12T17:14:55.822Z,3.60
2023-02-12T17:17:23.636Z,3.30
2023-02-12T17:19:53.103Z,2.90
2023-02-12T17:22:24.684Z,2.67
2023-02-12T17:24:55.341Z,2.37
2023-02-12T17:27:23.766Z,3.07
2023-02-12T17:29:51.580Z,3.33
2023-02-12T17:32:19.426Z,4.20
2023-02-12T17:34:50.308Z,3.23
2023-02-12T17:37:19.065Z,3.70
2023-02-12T17:39:48.304Z,4.33
2023-02-12T17:42:16.225Z,3.23
2023-02-12T17:44:44.132Z,3.20
2023-02-12T17:47:14.112Z,4.07
2023-02-12T17:49:42.570Z,3.37
2023-02-12T17:52:10.597Z,4.70
2023-02-12T17:54:41.047Z,5.60
2023-02-12T17:57:13.015Z,5.00
2023-02-12T17:59:41.752Z,4.77
2023-02-12T18:02:11.243Z,5.20
2023-02-12T18:04:39.987Z,4.73
2023-02-12T18:07:07.900Z,4.90
2023-02-12T18:09:38.104Z,6.00
2023-02-12T18:12:07.803Z,6.23
2023-02-12T18:14:37.372Z,6.40
2023-02-12T18:17:05.285Z,7.20
2023-02-12T18:19:33.098Z,6.93
2023-02-12T18:22:00.856Z,5.90
2023-02-12T18:24:30.708Z,7.80
2023-02-12T18:26:58.480Z,8.07
2023-02-12T18:29:28.613Z,7.07
2023-02-12T18:31:59.716Z,6.80
2023-02-12T18:34:27.764Z,6.93
2023-02-12T18:36:55.571Z,7.23
2023-02-12T18:39:23.337Z,7.03
2023-02-12T18:41:51.150Z,7.70
2023-02-12T18:44:19.012Z,7.07
2023-02-12T18:46:46.759Z,6.00
2023-02-12T18:49:16.588Z,6.97
2023-02-12T18:51:44.611Z,6.60
2023-02-12T18:54:14.141Z,6.97
2023-02-12T18:56:45.005Z,8.47
2023-02-12T18:59:15.297Z,8.00
2023-02-12T19:01:44.291Z,9.27
2023-02-12T19:04:13.738Z,7.73
2023-02-12T19:06:45.601Z,9.67
2023-02-12T19:09:16.677Z,8.27
2023-02-12T19:11:46.551Z,7.27
2023-02-12T19:14:14.508Z,7.50
2023-02-12T19:16:42.612Z,6.90
2023-02-12T19:19:10.422Z,6.93
2023-02-12T19:21:39.496Z,8.43
2023-02-12T19:24:09.206Z,6.87
2023-02-12T19:26:37.342Z,6.70
2023-02-12T19:29:06.069Z,7.00
2023-02-12T19:31:36.114Z,7.93
2023-02-12T19:34:06.135Z,7.77
2023-02-12T19:36:37.038Z,8.03
2023-02-12T19:39:06.493Z,8.33
2023-02-12T19:41:40.818Z,8.50
2023-02-12T19:44:12.594Z,9.00
2023-02-12T19:46:40.984Z,7.77
2023-02-12T19:49:13.560Z,8.23
2023-02-12T19:51:41.728Z,8.10
2023-02-12T19:54:10.293Z,8.33
2023-02-12T19:56:40.043Z,8.53
2023-02-12T19:59:08.198Z,6.73
2023-02-12T20:01:38.149Z,7.57
2023-02-12T20:04:06.334Z,8.47
2023-02-12T20:06:36.990Z,9.00
2023-02-12T20:09:06.141Z,10.20
2023-02-12T20:11:37.347Z,10.37
2023-02-12T20:14:07.622Z,9.27
2023-02-12T20:16:38.256Z,10.23
2023-02-12T20:19:08.291Z,10.73
2023-02-12T20:21:39.191Z,10.23
2023-02-12T20:24:07.559Z,10.20
2023-02-12T20:26:36.435Z,10.77
2023-02-12T20:29:06.068Z,10.43
2023-02-12T20:31:35.876Z,10.77
2023-02-12T20:34:06.491Z,10.63
2023-02-12T20:36:36.691Z,8.87
2023-02-12T20:39:06.081Z,9.50
2023-02-12T20:41:34.922Z,10.77
2023-02-12T20:44:02.729Z,9.50
2023-02-12T20:46:31.937Z,12.07
2023-02-12T20:48:59.696Z,10.20
2023-02-12T20:51:28.913Z,9.67
2023-02-12T20:53:57.046Z,10.00
2023-02-12T20:56:27.342Z,9.70
2023-02-12T20:58:55.601Z,11.13
2023-02-12T21:01:26.597Z,8.63
2023-02-12T21:03:56.404Z,8.23
2023-02-12T21:06:25.512Z,13.03
2023-02-12T21:08:53.346Z,10.73
2023-02-12T21:11:23.070Z,10.00
2023-02-12T21:14:02.349Z,9.17
2023-02-12T21:16:33.503Z,11.30
2023-02-12T21:19:02.967Z,9.93
2023-02-12T21:21:32.757Z,10.30
2023-02-12T21:24:01.878Z,9.33
2023-02-12T21:26:33.231Z,11.20
2023-02-12T21:29:03.929Z,10.70
2023-02-12T21:31:34.107Z,12.87
2023-02-12T21:34:05.283Z,10.73
2023-02-12T21:36:37.670Z,11.07
2023-02-12T21:39:06.904Z,10.00
2023-02-12T21:41:36.743Z,9.57
2023-02-12T21:44:06.859Z,12.93
2023-02-12T21:46:35.559Z,11.87
2023-02-12T21:49:05.549Z,12.30
2023-02-12T21:51:37.050Z,12.57
2023-02-12T21:54:07.353Z,11.90
2023-02-12T21:56:36.751Z,13.07
2023-02-12T21:59:05.228Z,8.97
2023-02-12T22:01:35.774Z,10.70
2023-02-12T22:04:06.725Z,10.00
2023-02-12T22:06:37.864Z,10.30
2023-02-12T22:09:08.706Z,10.10
2023-02-12T22:11:36.972Z,9.00
2023-02-12T22:14:06.773Z,9.33
2023-02-12T22:16:35.557Z,10.87
2023-02-12T22:19:05.560Z,9.43
2023-02-12T22:21:35.251Z,10.93
2023-02-12T22:24:05.336Z,12.07
2023-02-12T22:26:33.918Z,13.13
2023-02-12T22:29:06.888Z,11.80
2023-02-12T22:31:37.411Z,13.20
2023-02-12T22:34:09.124Z,12.77
2023-02-12T22:36:39.193Z,13.30
2023-02-12T22:39:07.616Z,12.47
2023-02-12T22:41:35.944Z,12.90
2023-02-12T22:44:05.885Z,12.33
2023-02-12T22:46:36.076Z,13.30
2023-02-12T22:49:04.198Z,12.83
2023-02-12T22:51:34.565Z,13.17
2023-02-12T22:54:02.456Z,13.13
2023-02-12T22:56:30.219Z,12.97
2023-02-12T22:59:00.206Z,13.90
2023-02-12T23:01:29.739Z,13.13
2023-02-12T23:03:58.317Z,13.90
2023-02-12T23:06:27.663Z,14.60
2023-02-12T23:08:58.931Z,13.27
2023-02-12T23:11:28.065Z,11.00
2023-02-12T23:13:56.402Z,13.30
2023-02-12T23:16:24.659Z,13.07
2023-02-12T23:18:56.393Z,11.57
2023-02-12T23:21:24.648Z,13.00
2023-02-12T23:23:52.496Z,10.17
2023-02-12T23:26:21.799Z,8.93
2023-02-12T23:28:49.593Z,9.80
2023-02-12T23:31:19.498Z,10.27
2023-02-12T23:33:47.358Z,9.63
2023-02-12T23:36:15.468Z,11.63
2023-02-12T23:38:43.286Z,12.03
2023-02-12T23:41:11.092Z,11.60
2023-02-12T23:43:40.201Z,12.40
2023-02-12T23:46:09.180Z,11.93
2023-02-12T23:48:37.059Z,11.37
2023-02-12T23:51:05.486Z,12.10
2023-02-12T23:53:33.224Z,11.20
2023-02-12T23:56:01.027Z,10.30
2023-02-12T23:58:28.760Z,9.90
